sensor_id;sensor_type;location;lat;lon;timestamp;pressure;altitude;pressure_sealevel;temperature;humidity
13314;BME280;6725;48.112;11.604;2023-02-11T00:01:15;97133.84;;;-1.88;100.00
13314;BME280;6725;48.112;11.604;2023-02-11T00:03:43;97126.91;;;-1.89;100.00
13314;BME280;6725;48.112;11.604;2023-02-11T00:06:09;97137.59;;;-1.89;100.00
13314;BME280;6725;48.112;11.604;2023-02-11T00:08:35;97125.34;;;-1.95;100.00
13314;BME280;6725;48.112;11.604;2023-02-11T00:11:01;97124.84;;;-1.97;100.00
13314;BME280;6725;48.112;11.604;2023-02-11T00:13:26;97124.88;;;-2.02;100.00
13314;BME280;6725;48.112;11.604;2023-02-11T00:15:53;97129.72;;;-2.04;100.00
13314;BME280;6725;48.112;11.604;2023-02-11T00:18:19;97138.03;;;-2.06;100.00
13314;BME280;6725;48.112;11.604;2023-02-11T00:20:44;97136.16;;;-2.10;100.00
13314;BME280;6725;48.112;11.604;2023-02-11T00:23:10;97141.47;;;-2.05;100.00
13314;BME280;6725;48.112;11.604;2023-02-11T00:25:42;97138.78;;;-2.05;100.00
13314;BME280;6725;48.112;11.604;2023-02-11T00:28:09;97143.66;;;-2.07;100.00
13314;BME280;6725;48.112;11.604;2023-02-11T00:30:35;97135.06;;;-2.04;100.00
13314;BME280;6725;48.112;11.604;2023-02-11T00:33:01;97127.53;;;-2.02;100.00
13314;BME280;6725;48.112;11.604;2023-02-11T00:35:27;97125.94;;;-2.03;100.00
13314;BME280;6725;48.112;11.604;2023-02-11T00:37:53;97118.69;;;-1.98;100.00
13314;BME280;6725;48.112;11.604;2023-02-11T00:40:19;97128.81;;;-1.95;100.00
13314;BME280;6725;48.112;11.604;2023-02-11T00:42:44;97120.53;;;-1.93;100.00
13314;BME280;6725;48.112;11.604;2023-02-11T00:45:10;97119.44;;;-1.92;100.00
13314;BME280;6725;48.112;11.604;2023-02-11T00:47:35;97116.75;;;-1.92;100.00
13314;BME280;6725;48.112;11.604;2023-02-11T00:50:02;97110.84;;;-1.89;100.00
13314;BME280;6725;48.112;11.604;2023-02-11T00:52:30;97102.84;;;-1.94;100.00
13314;BME280;6725;48.112;11.604;2023-02-11T00:54:55;97099.41;;;-2.00;100.00
13314;BME280;6725;48.112;11.604;2023-02-11T00:57:20;97106.94;;;-2.02;100.00
13314;BME280;6725;48.112;11.604;2023-02-11T00:59:46;97086.34;;;-2.01;100.00
13314;BME280;6725;48.112;11.604;2023-02-11T01:02:11;97091.91;;;-1.98;100.00
13314;BME280;6725;48.112;11.604;2023-02-11T01:04:36;97098.59;;;-1.95;100.00
13314;BME280;6725;48.112;11.604;2023-02-11T01:07:02;97097.50;;;-1.94;100.00
13314;BME280;6725;48.112;11.604;2023-02-11T01:09:27;97095.91;;;-1.95;100.00
13314;BME280;6725;48.112;11.604;2023-02-11T01:11:53;97097.50;;;-1.94;100.00
13314;BME280;6725;48.112;11.604;2023-02-11T01:14:18;97090.56;;;-1.95;100.00
13314;BME280;6725;48.112;11.604;2023-02-11T01:16:43;97091.91;;;-1.98;100.00
13314;BME280;6725;48.112;11.604;2023-02-11T01:19:09;97096.47;;;-1.98;100.00
13314;BME280;6725;48.112;11.604;2023-02-11T01:21:34;97091.13;;;-1.98;100.00
13314;BME280;6725;48.112;11.604;2023-02-11T01:24:00;97087.13;;;-2.01;100.00
13314;BME280;6725;48.112;11.604;2023-02-11T01:26:25;97092.47;;;-2.01;100.00
13314;BME280;6725;48.112;11.604;2023-02-11T01:28:50;97099.41;;;-2.00;100.00
13314;BME280;6725;48.112;11.604;2023-02-11T01:31:16;97085.53;;;-2.02;100.00
13314;BME280;6725;48.112;11.604;2023-02-11T01:33:41;97087.47;;;-2.07;100.00
13314;BME280;6725;48.112;11.604;2023-02-11T01:36:07;97093.91;;;-2.08;100.00
13314;BME280;6725;48.112;11.604;2023-02-11T01:38:33;97093.31;;;-2.05;100.00
13314;BME280;6725;48.112;11.604;2023-02-11T01:41:01;97089.88;;;-2.06;100.00
13314;BME280;6725;48.112;11.604;2023-02-11T01:43:33;97098.44;;;-2.09;100.00
13314;BME280;6725;48.112;11.604;2023-02-11T01:46:19;97088.56;;;-2.13;100.00
13314;BME280;6725;48.112;11.604;2023-02-11T01:48:49;97092.91;;;-2.17;100.00
13314;BME280;6725;48.112;11.604;2023-02-11T01:51:30;97089.13;;;-2.16;100.00
13314;BME280;6725;48.112;11.604;2023-02-11T01:53:58;97092.91;;;-2.17;100.00
13314;BME280;6725;48.112;11.604;2023-02-11T01:56:46;97097.69;;;-2.14;100.00
13314;BME280;6725;48.112;11.604;2023-02-11T01:59:38;97098.22;;;-2.12;100.00
13314;BME280;6725;48.112;11.604;2023-02-11T02:02:07;97096.66;;;-2.18;100.00
13314;BME280;6725;48.112;11.604;2023-02-11T02:04:38;97094.81;;;-2.23;100.00
13314;BME280;6725;48.112;11.604;2023-02-11T02:10:02;97087.63;;;-2.27;100.00
13314;BME280;6725;48.112;11.604;2023-02-11T02:12:29;97090.81;;;-2.25;100.00
13314;BME280;6725;48.112;11.604;2023-02-11T02:15:18;97076.38;;;-2.24;100.00
13314;BME280;6725;48.112;11.604;2023-02-11T02:18:36;97082.81;;;-2.25;100.00
13314;BME280;6725;48.112;11.604;2023-02-11T02:23:40;97072.94;;;-2.30;100.00
13314;BME280;6725;48.112;11.604;2023-02-11T02:26:45;97059.53;;;-2.25;100.00
13314;BME280;6725;48.112;11.604;2023-02-11T02:37:47;97041.66;;;-2.29;100.00
13314;BME280;6725;48.112;11.604;2023-02-11T02:40:31;97039.47;;;-2.27;100.00
13314;BME280;6725;48.112;11.604;2023-02-11T02:42:59;97043.22;;;-2.23;100.00
13314;BME280;6725;48.112;11.604;2023-02-11T02:45:25;97036.50;;;-2.21;100.00
13314;BME280;6725;48.112;11.604;2023-02-11T02:47:50;97033.34;;;-2.28;100.00
13314;BME280;6725;48.112;11.604;2023-02-11T02:50:20;97041.66;;;-2.29;100.00
13314;BME280;6725;48.112;11.604;2023-02-11T03:06:57;97014.84;;;-2.53;100.00
13314;BME280;6725;48.112;11.604;2023-02-11T03:09:27;97007.81;;;-2.44;100.00
13314;BME280;6725;48.112;11.604;2023-02-11T03:11:55;97013.97;;;-2.43;100.00
13314;BME280;6725;48.112;11.604;2023-02-11T03:14:21;97007.59;;;-2.47;100.00
13314;BME280;6725;48.112;11.604;2023-02-11T03:16:53;97008.94;;;-2.50;100.00
13314;BME280;6725;48.112;11.604;2023-02-11T03:19:32;97001.22;;;-2.51;100.00
13314;BME280;6725;48.112;11.604;2023-02-11T03:22:02;97001.47;;;-2.53;100.00
13314;BME280;6725;48.112;11.604;2023-02-11T03:24:32;97002.31;;;-2.57;100.00
13314;BME280;6725;48.112;11.604;2023-02-11T03:27:29;96992.97;;;-2.60;100.00
13314;BME280;6725;48.112;11.604;2023-02-11T03:30:00;96992.19;;;-2.60;100.00
13314;BME280;6725;48.112;11.604;2023-02-11T03:32:39;96978.81;;;-2.60;100.00
13314;BME280;6725;48.112;11.604;2023-02-11T03:35:37;96985.72;;;-2.54;100.00
13314;BME280;6725;48.112;11.604;2023-02-11T03:38:15;96990.22;;;-2.50;100.00
13314;BME280;6725;48.112;11.604;2023-02-11T03:40:43;96993.69;;;-2.49;100.00
13314;BME280;6725;48.112;11.604;2023-02-11T03:43:16;96999.00;;;-2.44;100.00
13314;BME280;6725;48.112;11.604;2023-02-11T03:45:44;97001.69;;;-2.44;100.00
13314;BME280;6725;48.112;11.604;2023-02-11T03:48:14;97015.28;;;-2.41;100.00
13314;BME280;6725;48.112;11.604;2023-02-11T03:50:42;97013.97;;;-2.43;100.00
13314;BME280;6725;48.112;11.604;2023-02-11T03:53:10;97000.59;;;-2.43;100.00
13314;BME280;6725;48.112;11.604;2023-02-11T03:55:39;97010.78;;;-2.45;100.00
13314;BME280;6725;48.112;11.604;2023-02-11T03:58:05;97007.81;;;-2.44;100.00
13314;BME280;6725;48.112;11.604;2023-02-11T04:00:36;97016.13;;;-2.45;100.00
13314;BME280;6725;48.112;11.604;2023-02-11T04:03:02;97018.28;;;-2.47;100.00
13314;BME280;6725;48.112;11.604;2023-02-11T04:05:28;97020.94;;;-2.47;100.00
13314;BME280;6725;48.112;11.604;2023-02-11T04:07:53;97026.84;;;-2.45;100.00
13314;BME280;6725;48.112;11.604;2023-02-11T04:10:19;97021.00;;;-2.52;100.00
13314;BME280;6725;48.112;11.604;2023-02-11T04:12:44;97024.50;;;-2.57;100.00
13314;BME280;6725;48.112;11.604;2023-02-11T04:15:09;97022.66;;;-2.56;100.00
13314;BME280;6725;48.112;11.604;2023-02-11T04:17:35;97033.34;;;-2.61;100.00
13314;BME280;6725;48.112;11.604;2023-02-11T04:20:01;97024.84;;;-2.63;100.00
13314;BME280;6725;48.112;11.604;2023-02-11T04:22:26;97014.69;;;-2.66;100.00
13314;BME280;6725;48.112;11.604;2023-02-11T04:24:52;97031.22;;;-2.64;100.00
13314;BME280;6725;48.112;11.604;2023-02-11T04:27:17;97033.41;;;-2.66;100.00
13314;BME280;6725;48.112;11.604;2023-02-11T04:29:43;97039.81;;;-2.67;100.00
13314;BME280;6725;48.112;11.604;2023-02-11T04:32:10;97038.75;;;-2.66;100.00
13314;BME280;6725;48.112;11.604;2023-02-11T04:34:35;97033.69;;;-2.68;100.00
13314;BME280;6725;48.112;11.604;2023-02-11T04:37:01;97030.25;;;-2.73;100.00
13314;BME280;6725;48.112;11.604;2023-02-11T04:39:26;97043.00;;;-2.65;100.00
13314;BME280;6725;48.112;11.604;2023-02-11T04:41:51;97047.81;;;-2.62;100.00
13314;BME280;6725;48.112;11.604;2023-02-11T04:44:17;97036.31;;;-2.63;100.00
13314;BME280;6725;48.112;11.604;2023-02-11T04:46:42;97032.81;;;-2.58;100.00
13314;BME280;6725;48.112;11.604;2023-02-11T04:49:11;97044.19;;;-2.48;100.00
13314;BME280;6725;48.112;11.604;2023-02-11T04:51:37;97052.97;;;-2.42;100.00
13314;BME280;6725;48.112;11.604;2023-02-11T04:54:02;97064.22;;;-2.40;100.00
13314;BME280;6725;48.112;11.604;2023-02-11T04:56:27;97071.69;;;-2.37;100.00
13314;BME280;6725;48.112;11.604;2023-02-11T04:58:53;97073.81;;;-2.39;100.00
13314;BME280;6725;48.112;11.604;2023-02-11T05:01:18;97072.72;;;-2.38;100.00
13314;BME280;6725;48.112;11.604;2023-02-11T05:03:43;97066.84;;;-2.35;100.00
13314;BME280;6725;48.112;11.604;2023-02-11T05:06:09;97070.31;;;-2.35;100.00
13314;BME280;6725;48.112;11.604;2023-02-11T05:08:35;97064.16;;;-2.35;100.00
13314;BME280;6725;48.112;11.604;2023-02-11T05:11:00;97063.13;;;-2.39;100.00
13314;BME280;6725;48.112;11.604;2023-02-11T05:13:27;97063.72;;;-2.47;100.00
13314;BME280;6725;48.112;11.604;2023-02-11T05:15:53;97056.25;;;-2.50;100.00
13314;BME280;6725;48.112;11.604;2023-02-11T05:18:18;97057.81;;;-2.44;100.00
13314;BME280;6725;48.112;11.604;2023-02-11T05:20:44;97055.34;;;-2.36;100.00
13314;BME280;6725;48.112;11.604;2023-02-11T05:23:10;97049.63;;;-2.24;100.00
13314;BME280;6725;48.112;11.604;2023-02-11T05:25:35;97047.41;;;-2.12;100.00
13314;BME280;6725;48.112;11.604;2023-02-11T05:28:02;97049.66;;;-2.01;100.00
13314;BME280;6725;48.112;11.604;2023-02-11T05:30:28;97047.72;;;-1.90;100.00
13314;BME280;6725;48.112;11.604;2023-02-11T05:32:53;97044.91;;;-1.80;100.00
13314;BME280;6725;48.112;11.604;2023-02-11T05:35:19;97044.81;;;-1.70;100.00
13314;BME280;6725;48.112;11.604;2023-02-11T05:37:44;97045.72;;;-1.56;100.00
13314;BME280;6725;48.112;11.604;2023-02-11T05:40:10;97049.34;;;-1.47;100.00
13314;BME280;6725;48.112;11.604;2023-02-11T05:42:35;97040.41;;;-1.38;100.00
13314;BME280;6725;48.112;11.604;2023-02-11T05:45:00;97032.31;;;-1.33;100.00
13314;BME280;6725;48.112;11.604;2023-02-11T05:47:26;97029.84;;;-1.29;100.00
13314;BME280;6725;48.112;11.604;2023-02-11T05:49:51;97033.03;;;-1.27;100.00
13314;BME280;6725;48.112;11.604;2023-02-11T05:52:21;97034.06;;;-1.23;100.00
13314;BME280;6725;48.112;11.604;2023-02-11T05:54:46;97047.38;;;-1.18;100.00
13314;BME280;6725;48.112;11.604;2023-02-11T05:57:12;97048.41;;;-1.14;100.00
13314;BME280;6725;48.112;11.604;2023-02-11T05:59:38;97045.69;;;-1.09;100.00
13314;BME280;6725;48.112;11.604;2023-02-11T06:02:04;97042.91;;;-1.04;100.00
13314;BME280;6725;48.112;11.604;2023-02-11T06:04:29;97044.16;;;-0.97;100.00
13314;BME280;6725;48.112;11.604;2023-02-11T06:06:55;97043.34;;;-0.97;100.00
13314;BME280;6725;48.112;11.604;2023-02-11T06:09:21;97041.19;;;-0.95;100.00
13314;BME280;6725;48.112;11.604;2023-02-11T06:11:46;97034.50;;;-0.98;100.00
13314;BME280;6725;48.112;11.604;2023-02-11T06:14:11;97048.94;;;-0.94;100.00
13314;BME280;6725;48.112;11.604;2023-02-11T06:16:38;97041.59;;;-0.88;100.00
13314;BME280;6725;48.112;11.604;2023-02-11T06:19:03;97046.19;;;-0.89;100.00
13314;BME280;6725;48.112;11.604;2023-02-11T06:21:29;97046.69;;;-0.87;100.00
13314;BME280;6725;48.112;11.604;2023-02-11T06:23:54;97046.91;;;-0.83;100.00
13314;BME280;6725;48.112;11.604;2023-02-11T06:26:21;97034.00;;;-0.81;100.00
13314;BME280;6725;48.112;11.604;2023-02-11T06:28:47;97055.97;;;-0.79;100.00
13314;BME280;6725;48.112;11.604;2023-02-11T06:31:13;97040.91;;;-0.75;100.00
13314;BME280;6725;48.112;11.604;2023-02-11T06:33:39;97043.00;;;-0.72;100.00
13314;BME280;6725;48.112;11.604;2023-02-11T06:36:11;97048.56;;;-0.69;100.00
13314;BME280;6725;48.112;11.604;2023-02-11T06:38:37;97055.22;;;-0.66;100.00
13314;BME280;6725;48.112;11.604;2023-02-11T06:41:02;97055.75;;;-0.64;100.00
13314;BME280;6725;48.112;11.604;2023-02-11T06:43:27;97058.94;;;-0.62;100.00
13314;BME280;6725;48.112;11.604;2023-02-11T06:45:54;97058.06;;;-0.58;100.00
13314;BME280;6725;48.112;11.604;2023-02-11T06:48:19;97056.09;;;-0.52;100.00
13314;BME280;6725;48.112;11.604;2023-02-11T06:50:45;97052.34;;;-0.51;100.00
13314;BME280;6725;48.112;11.604;2023-02-11T06:53:10;97039.94;;;-0.47;100.00
13314;BME280;6725;48.112;11.604;2023-02-11T06:55:36;97046.22;;;-0.38;100.00
13314;BME280;6725;48.112;11.604;2023-02-11T06:58:01;97041.28;;;-0.31;100.00
13314;BME280;6725;48.112;11.604;2023-02-11T07:00:27;97044.88;;;-0.22;100.00
13314;BME280;6725;48.112;11.604;2023-02-11T07:02:53;97062.91;;;-0.09;100.00
13314;BME280;6725;48.112;11.604;2023-02-11T07:05:19;97058.47;;;0.00;100.00
13314;BME280;6725;48.112;11.604;2023-02-11T07:07:44;97069.84;;;0.11;100.00
13314;BME280;6725;48.112;11.604;2023-02-11T07:10:10;97076.91;;;0.20;100.00
13314;BME280;6725;48.112;11.604;2023-02-11T07:12:35;97076.22;;;0.28;100.00
13314;BME280;6725;48.112;11.604;2023-02-11T07:15:02;97086.50;;;0.40;100.00
13314;BME280;6725;48.112;11.604;2023-02-11T07:17:27;97079.13;;;0.45;100.00
13314;BME280;6725;48.112;11.604;2023-02-11T07:19:53;97069.88;;;0.51;100.00
13314;BME280;6725;48.112;11.604;2023-02-11T07:22:18;97061.72;;;0.56;100.00
13314;BME280;6725;48.112;11.604;2023-02-11T07:24:43;97057.94;;;0.57;100.00
13314;BME280;6725;48.112;11.604;2023-02-11T07:27:09;97064.72;;;0.68;100.00
13314;BME280;6725;48.112;11.604;2023-02-11T07:29:34;97061.13;;;0.73;100.00
13314;BME280;6725;48.112;11.604;2023-02-11T07:31:59;97050.47;;;0.81;100.00
13314;BME280;6725;48.112;11.604;2023-02-11T07:34:25;97042.41;;;0.81;100.00
13314;BME280;6725;48.112;11.604;2023-02-11T07:36:50;97037.03;;;0.81;100.00
13314;BME280;6725;48.112;11.604;2023-02-11T07:39:16;97049.25;;;0.87;100.00
13314;BME280;6725;48.112;11.604;2023-02-11T07:41:41;97059.31;;;0.95;100.00
13314;BME280;6725;48.112;11.604;2023-02-11T07:44:08;97070.44;;;1.02;100.00
13314;BME280;6725;48.112;11.604;2023-02-11T07:46:34;97074.03;;;1.11;100.00
13314;BME280;6725;48.112;11.604;2023-02-11T07:48:59;97066.38;;;1.18;100.00
13314;BME280;6725;48.112;11.604;2023-02-11T07:51:27;97064.06;;;1.25;100.00
13314;BME280;6725;48.112;11.604;2023-02-11T07:53:54;97070.81;;;1.36;100.00
13314;BME280;6725;48.112;11.604;2023-02-11T07:56:20;97058.72;;;1.47;100.00
13314;BME280;6725;48.112;11.604;2023-02-11T07:58:46;97070.94;;;1.53;100.00
13314;BME280;6725;48.112;11.604;2023-02-11T08:01:20;97076.31;;;1.53;100.00
13314;BME280;6725;48.112;11.604;2023-02-11T08:03:49;97067.53;;;1.61;100.00
13314;BME280;6725;48.112;11.604;2023-02-11T08:06:15;97048.44;;;1.71;100.00
13314;BME280;6725;48.112;11.604;2023-02-11T08:08:42;97048.03;;;1.78;100.00
13314;BME280;6725;48.112;11.604;2023-02-11T08:11:13;97039.03;;;1.82;100.00
13314;BME280;6725;48.112;11.604;2023-02-11T08:13:39;97034.50;;;1.91;100.00
13314;BME280;6725;48.112;11.604;2023-02-11T08:16:05;97036.50;;;2.08;100.00
13314;BME280;6725;48.112;11.604;2023-02-11T08:18:31;97035.03;;;2.32;100.00
13314;BME280;6725;48.112;11.604;2023-02-11T08:21:03;97020.88;;;2.57;100.00
13314;BME280;6725;48.112;11.604;2023-02-11T08:23:28;97029.19;;;2.78;100.00
13314;BME280;6725;48.112;11.604;2023-02-11T08:25:54;97027.03;;;3.05;100.00
13314;BME280;6725;48.112;11.604;2023-02-11T08:28:19;97022.81;;;3.47;100.00
13314;BME280;6725;48.112;11.604;2023-02-11T08:30:44;97019.13;;;3.69;100.00
13314;BME280;6725;48.112;11.604;2023-02-11T08:33:10;97015.16;;;3.75;100.00
13314;BME280;6725;48.112;11.604;2023-02-11T08:35:35;97008.63;;;3.93;100.00
13314;BME280;6725;48.112;11.604;2023-02-11T08:38:01;97017.56;;;3.85;100.00
13314;BME280;6725;48.112;11.604;2023-02-11T08:40:27;97025.78;;;3.97;100.00
13314;BME280;6725;48.112;11.604;2023-02-11T08:42:52;97029.41;;;4.09;100.00
13314;BME280;6725;48.112;11.604;2023-02-11T08:45:17;97046.72;;;4.25;100.00
13314;BME280;6725;48.112;11.604;2023-02-11T08:47:43;97051.28;;;4.33;100.00
13314;BME280;6725;48.112;11.604;2023-02-11T08:50:08;97054.16;;;4.45;100.00
13314;BME280;6725;48.112;11.604;2023-02-11T08:52:34;97063.34;;;4.44;100.00
13314;BME280;6725;48.112;11.604;2023-02-11T08:55:00;97047.63;;;4.38;100.00
13314;BME280;6725;48.112;11.604;2023-02-11T08:57:25;97062.59;;;4.27;100.00
13314;BME280;6725;48.112;11.604;2023-02-11T08:59:51;97056.25;;;4.23;100.00
13314;BME280;6725;48.112;11.604;2023-02-11T09:02:16;97048.34;;;4.18;100.00
13314;BME280;6725;48.112;11.604;2023-02-11T09:04:41;97054.38;;;4.15;100.00
13314;BME280;6725;48.112;11.604;2023-02-11T09:07:06;97063.44;;;4.10;100.00
13314;BME280;6725;48.112;11.604;2023-02-11T09:09:32;97066.16;;;4.02;100.00
13314;BME280;6725;48.112;11.604;2023-02-11T09:11:57;97063.28;;;4.07;100.00
13314;BME280;6725;48.112;11.604;2023-02-11T09:14:25;97056.91;;;4.20;100.00
13314;BME280;6725;48.112;11.604;2023-02-11T09:16:51;97054.00;;;4.25;100.00
13314;BME280;6725;48.112;11.604;2023-02-11T09:19:17;97044.50;;;4.19;100.00
13314;BME280;6725;48.112;11.604;2023-02-11T09:21:43;97032.25;;;4.13;100.00
13314;BME280;6725;48.112;11.604;2023-02-11T09:24:08;97033.38;;;4.12;100.00
13314;BME280;6725;48.112;11.604;2023-02-11T09:26:35;97026.03;;;4.21;100.00
13314;BME280;6725;48.112;11.604;2023-02-11T09:29:01;97037.97;;;4.20;100.00
13314;BME280;6725;48.112;11.604;2023-02-11T09:31:28;97029.88;;;4.20;100.00
13314;BME280;6725;48.112;11.604;2023-02-11T09:33:58;97032.56;;;4.20;100.00
13314;BME280;6725;48.112;11.604;2023-02-11T09:36:32;97031.75;;;4.28;100.00
13314;BME280;6725;48.112;11.604;2023-02-11T09:39:00;97019.34;;;4.35;100.00
13314;BME280;6725;48.112;11.604;2023-02-11T09:41:39;97010.91;;;4.28;100.00
13314;BME280;6725;48.112;11.604;2023-02-11T09:44:09;97018.84;;;4.33;100.00
13314;BME280;6725;48.112;11.604;2023-02-11T09:46:42;97017.06;;;4.46;100.00
13314;BME280;6725;48.112;11.604;2023-02-11T09:49:18;97020.53;;;4.55;100.00
13314;BME280;6725;48.112;11.604;2023-02-11T09:51:56;97020.16;;;4.65;100.00
13314;BME280;6725;48.112;11.604;2023-02-11T09:54:39;97025.81;;;4.80;100.00
13314;BME280;6725;48.112;11.604;2023-02-11T09:57:10;97025.03;;;5.09;99.67
13314;BME280;6725;48.112;11.604;2023-02-11T09:59:38;97039.06;;;5.52;94.62
13314;BME280;6725;48.112;11.604;2023-02-11T10:04:48;97011.41;;;6.20;88.95
13314;BME280;6725;48.112;11.604;2023-02-11T10:15:53;96990.22;;;8.40;72.79
13314;BME280;6725;48.112;11.604;2023-02-11T10:18:38;96998.28;;;8.21;72.28
13314;BME280;6725;48.112;11.604;2023-02-11T10:23:51;97002.91;;;7.93;73.68
13314;BME280;6725;48.112;11.604;2023-02-11T10:26:18;97004.38;;;7.63;74.15
13314;BME280;6725;48.112;11.604;2023-02-11T10:28:50;97006.22;;;7.87;74.75
13314;BME280;6725;48.112;11.604;2023-02-11T10:31:39;97001.63;;;7.24;76.92
13314;BME280;6725;48.112;11.604;2023-02-11T10:34:11;96996.53;;;7.10;79.76
13314;BME280;6725;48.112;11.604;2023-02-11T10:36:39;96988.72;;;7.09;80.66
13314;BME280;6725;48.112;11.604;2023-02-11T10:39:17;96995.19;;;6.80;80.90
13314;BME280;6725;48.112;11.604;2023-02-11T10:41:45;96996.22;;;6.88;82.02
13314;BME280;6725;48.112;11.604;2023-02-11T10:44:20;96988.50;;;7.14;81.80
13314;BME280;6725;48.112;11.604;2023-02-11T10:46:47;96978.22;;;7.86;81.33
13314;BME280;6725;48.112;11.604;2023-02-11T10:49:34;96977.94;;;8.46;76.10
13314;BME280;6725;48.112;11.604;2023-02-11T10:54:37;96984.94;;;9.09;72.76
13314;BME280;6725;48.112;11.604;2023-02-11T10:57:03;96981.59;;;9.00;71.39
13314;BME280;6725;48.112;11.604;2023-02-11T10:59:31;96993.50;;;9.80;69.75
13314;BME280;6725;48.112;11.604;2023-02-11T11:02:18;96985.28;;;10.79;65.90
13314;BME280;6725;48.112;11.604;2023-02-11T11:04:46;96985.59;;;11.00;60.73
13314;BME280;6725;48.112;11.604;2023-02-11T11:07:38;96978.09;;;11.20;60.04
13314;BME280;6725;48.112;11.604;2023-02-11T11:10:28;96974.28;;;10.76;59.68
13314;BME280;6725;48.112;11.604;2023-02-11T11:12:54;96970.09;;;10.18;60.22
13314;BME280;6725;48.112;11.604;2023-02-11T11:15:23;96963.66;;;9.68;62.43
13314;BME280;6725;48.112;11.604;2023-02-11T11:17:50;96968.09;;;9.38;65.27
13314;BME280;6725;48.112;11.604;2023-02-11T11:20:28;96963.03;;;9.40;67.42
13314;BME280;6725;48.112;11.604;2023-02-11T11:23:15;96959.50;;;9.21;65.38
13314;BME280;6725;48.112;11.604;2023-02-11T11:25:44;96963.75;;;9.37;66.14
13314;BME280;6725;48.112;11.604;2023-02-11T11:28:22;96959.44;;;9.36;66.33
13314;BME280;6725;48.112;11.604;2023-02-11T11:30:51;96949.53;;;9.28;65.59
13314;BME280;6725;48.112;11.604;2023-02-11T11:33:23;96942.59;;;8.96;68.88
13314;BME280;6725;48.112;11.604;2023-02-11T11:36:10;96938.81;;;8.85;67.58
13314;BME280;6725;48.112;11.604;2023-02-11T11:39:09;96949.66;;;8.66;68.09
13314;BME280;6725;48.112;11.604;2023-02-11T11:41:30;96944.91;;;8.63;68.85
13314;BME280;6725;48.112;11.604;2023-02-11T11:44:24;96946.13;;;8.81;68.39
13314;BME280;6725;48.112;11.604;2023-02-11T11:49:38;96936.66;;;9.44;66.20
13314;BME280;6725;48.112;11.604;2023-02-11T11:52:32;96941.94;;;9.37;64.30
13314;BME280;6725;48.112;11.604;2023-02-11T11:57:36;96957.75;;;9.47;62.57
13314;BME280;6725;48.112;11.604;2023-02-11T12:00:02;96960.72;;;9.77;62.50
13314;BME280;6725;48.112;11.604;2023-02-11T12:03:05;96952.31;;;9.85;62.86
13314;BME280;6725;48.112;11.604;2023-02-11T12:08:42;96950.88;;;9.53;63.55
13314;BME280;6725;48.112;11.604;2023-02-11T12:11:43;96946.44;;;9.45;64.03
13314;BME280;6725;48.112;11.604;2023-02-11T12:14:25;96931.69;;;9.50;62.77
13314;BME280;6725;48.112;11.604;2023-02-11T12:20:30;96940.78;;;9.19;62.38
13314;BME280;6725;48.112;11.604;2023-02-11T12:23:28;96937.78;;;9.24;62.52
13314;BME280;6725;48.112;11.604;2023-02-11T12:26:13;96941.06;;;9.14;62.40
13314;BME280;6725;48.112;11.604;2023-02-11T12:28:55;96941.34;;;9.09;61.30
13314;BME280;6725;48.112;11.604;2023-02-11T12:36:54;96933.59;;;9.11;61.39
13314;BME280;6725;48.112;11.604;2023-02-11T12:39:38;96926.00;;;9.20;60.38
13314;BME280;6725;48.112;11.604;2023-02-11T12:42:21;96923.00;;;9.44;57.64
13314;BME280;6725;48.112;11.604;2023-02-11T12:47:57;96914.84;;;9.44;57.82
13314;BME280;6725;48.112;11.604;2023-02-11T12:53:27;96909.22;;;9.37;55.04
13314;BME280;6725;48.112;11.604;2023-02-11T12:56:01;96917.53;;;9.25;54.71
13314;BME280;6725;48.112;11.604;2023-02-11T12:58:30;96912.94;;;9.10;54.04
13314;BME280;6725;48.112;11.604;2023-02-11T13:01:09;96911.22;;;9.21;54.89
13314;BME280;6725;48.112;11.604;2023-02-11T13:03:42;96912.09;;;9.25;55.48
13314;BME280;6725;48.112;11.604;2023-02-11T13:06:28;96905.22;;;9.31;55.84
13314;BME280;6725;48.112;11.604;2023-02-11T13:09:03;96889.88;;;9.23;55.90
13314;BME280;6725;48.112;11.604;2023-02-11T13:11:41;96897.31;;;9.26;54.69
13314;BME280;6725;48.112;11.604;2023-02-11T13:14:24;96900.88;;;9.11;56.35
13314;BME280;6725;48.112;11.604;2023-02-11T13:16:54;96900.84;;;8.92;56.54
13314;BME280;6725;48.112;11.604;2023-02-11T13:19:30;96894.38;;;8.81;57.40
13314;BME280;6725;48.112;11.604;2023-02-11T13:24:54;96881.69;;;8.54;61.26
13314;BME280;6725;48.112;11.604;2023-02-11T13:27:31;96875.22;;;8.43;60.05
13314;BME280;6725;48.112;11.604;2023-02-11T13:38:22;96863.94;;;8.60;62.30
13314;BME280;6725;48.112;11.604;2023-02-11T13:41:03;96862.13;;;8.83;61.80
13314;BME280;6725;48.112;11.604;2023-02-11T13:43:32;96863.22;;;8.98;59.84
13314;BME280;6725;48.112;11.604;2023-02-11T13:46:03;96868.91;;;9.08;58.31
13314;BME280;6725;48.112;11.604;2023-02-11T13:48:34;96876.97;;;9.20;59.28
13314;BME280;6725;48.112;11.604;2023-02-11T13:51:06;96870.00;;;9.23;60.18
13314;BME280;6725;48.112;11.604;2023-02-11T13:53:51;96869.19;;;9.22;59.94
13314;BME280;6725;48.112;11.604;2023-02-11T13:56:39;96870.66;;;9.16;61.12
13314;BME280;6725;48.112;11.604;2023-02-11T14:08:12;96870.34;;;9.40;62.86
13314;BME280;6725;48.112;11.604;2023-02-11T14:11:04;96869.28;;;9.26;58.35
13314;BME280;6725;48.112;11.604;2023-02-11T14:16:14;96872.28;;;9.21;57.96
13314;BME280;6725;48.112;11.604;2023-02-11T14:21:22;96864.19;;;9.24;58.68
13314;BME280;6725;48.112;11.604;2023-02-11T14:26:40;96860.59;;;9.20;61.22
13314;BME280;6725;48.112;11.604;2023-02-11T14:32:05;96867.16;;;9.00;62.23
13314;BME280;6725;48.112;11.604;2023-02-11T14:35:26;96876.34;;;8.92;61.82
13314;BME280;6725;48.112;11.604;2023-02-11T14:42:46;96884.34;;;8.85;62.75
13314;BME280;6725;48.112;11.604;2023-02-11T14:45:18;96894.38;;;8.81;61.86
13314;BME280;6725;48.112;11.604;2023-02-11T14:48:06;96886.84;;;8.75;62.62
13314;BME280;6725;48.112;11.604;2023-02-11T14:50:48;96870.47;;;8.90;62.20
13314;BME280;6725;48.112;11.604;2023-02-11T14:53:20;96871.59;;;8.89;62.14
13314;BME280;6725;48.112;11.604;2023-02-11T14:55:51;96869.31;;;8.91;62.68
13314;BME280;6725;48.112;11.604;2023-02-11T15:03:46;96892.31;;;8.94;63.50